sensor_id;sensor_type;location;lat;lon;timestamp;P1;P2;P0
77538;PMS7003;67783;51.656;16.106;2023-12-28T00:01:18;7;7;4
77538;PMS7003;67783;51.656;16.106;2023-12-28T00:04:19;10;6;5
77538;PMS7003;67783;51.656;16.106;2023-12-28T00:07:21;7;6;3
77538;PMS7003;67783;51.656;16.106;2023-12-28T00:10:23;4;3;2
77538;PMS7003;67783;51.656;16.106;2023-12-28T00:13:27;9;6;4
77538;PMS7003;67783;51.656;16.106;2023-12-28T00:16:30;4;4;3
77538;PMS7003;67783;51.656;16.106;2023-12-28T00:19:33;8;7;5
77538;PMS7003;67783;51.656;16.106;2023-12-28T00:22:35;2;2;1
77538;PMS7003;67783;51.656;16.106;2023-12-28T00:25:38;7;6;4
77538;PMS7003;67783;51.656;16.106;2023-12-28T00:28:48;5;5;4
77538;PMS7003;67783;51.656;16.106;2023-12-28T00:31:49;8;5;4
77538;PMS7003;67783;51.656;16.106;2023-12-28T00:34:51;8;4;4
77538;PMS7003;67783;51.656;16.106;2023-12-28T00:37:52;8;8;5
77538;PMS7003;67783;51.656;16.106;2023-12-28T00:40:54;9;7;5
77538;PMS7003;67783;51.656;16.106;2023-12-28T00:43:55;7;6;4
77538;PMS7003;67783;51.656;16.106;2023-12-28T00:46:57;6;5;4
77538;PMS7003;67783;51.656;16.106;2023-12-28T00:50:03;7;7;5
77538;PMS7003;67783;51.656;16.106;2023-12-28T00:53:05;13;8;6
77538;PMS7003;67783;51.656;16.106;2023-12-28T00:56:06;5;5;4
77538;PMS7003;67783;51.656;16.106;2023-12-28T00:59:08;13;8;5
77538;PMS7003;67783;51.656;16.106;2023-12-28T01:02:09;3;3;2
77538;PMS7003;67783;51.656;16.106;2023-12-28T01:05:11;11;8;6
77538;PMS7003;67783;51.656;16.106;2023-12-28T01:08:12;9;6;4
77538;PMS7003;67783;51.656;16.106;2023-12-28T01:11:18;9;5;4
77538;PMS7003;67783;51.656;16.106;2023-12-28T01:14:19;4;4;4
77538;PMS7003;67783;51.656;16.106;2023-12-28T01:17:21;7;7;5
77538;PMS7003;67783;51.656;16.106;2023-12-28T01:20:22;10;8;4
77538;PMS7003;67783;51.656;16.106;2023-12-28T01:23:24;10;6;4
77538;PMS7003;67783;51.656;16.106;2023-12-28T01:26:25;6;5;4
77538;PMS7003;67783;51.656;16.106;2023-12-28T01:29:27;8;6;3
77538;PMS7003;67783;51.656;16.106;2023-12-28T01:32:32;8;6;4
77538;PMS7003;67783;51.656;16.106;2023-12-28T01:35:34;5;4;3
77538;PMS7003;67783;51.656;16.106;2023-12-28T01:38:35;5;5;4
77538;PMS7003;67783;51.656;16.106;2023-12-28T01:41:37;13;7;4
77538;PMS7003;67783;51.656;16.106;2023-12-28T01:44:38;8;5;3
77538;PMS7003;67783;51.656;16.106;2023-12-28T01:47:40;5;4;4
77538;PMS7003;67783;51.656;16.106;2023-12-28T01:50:42;6;3;2
77538;PMS7003;67783;51.656;16.106;2023-12-28T01:53:47;5;5;4
77538;PMS7003;67783;51.656;16.106;2023-12-28T01:56:54;8;6;4
77538;PMS7003;67783;51.656;16.106;2023-12-28T01:59:56;5;3;1
77538;PMS7003;67783;51.656;16.106;2023-12-28T02:03:14;6;3;2
77538;PMS7003;67783;51.656;16.106;2023-12-28T02:06:15;4;4;3
77538;PMS7003;67783;51.656;16.106;2023-12-28T02:09:19;3;3;2
77538;PMS7003;67783;51.656;16.106;2023-12-28T02:12:21;4;2;1
77538;PMS7003;67783;51.656;16.106;2023-12-28T02:15:22;8;4;3
77538;PMS7003;67783;51.656;16.106;2023-12-28T02:18:38;4;3;1
77538;PMS7003;67783;51.656;16.106;2023-12-28T02:21:45;6;3;3
77538;PMS7003;67783;51.656;16.106;2023-12-28T02:28:01;7;4;3
77538;PMS7003;67783;51.656;16.106;2023-12-28T02:31:04;6;4;3
77538;PMS7003;67783;51.656;16.106;2023-12-28T02:34:10;8;5;4
77538;PMS7003;67783;51.656;16.106;2023-12-28T02:37:28;6;4;3
77538;PMS7003;67783;51.656;16.106;2023-12-28T02:40:34;2;2;2
77538;PMS7003;67783;51.656;16.106;2023-12-28T02:43:41;3;3;2
77538;PMS7003;67783;51.656;16.106;2023-12-28T02:46:42;4;3;3
77538;PMS7003;67783;51.656;16.106;2023-12-28T02:49:44;3;2;2
77538;PMS7003;67783;51.656;16.106;2023-12-28T02:52:49;2;2;2
77538;PMS7003;67783;51.656;16.106;2023-12-28T02:55:50;5;5;4
77538;PMS7003;67783;51.656;16.106;2023-12-28T02:58:51;2;2;1
77538;PMS7003;67783;51.656;16.106;2023-12-28T03:01:53;7;4;2
77538;PMS7003;67783;51.656;16.106;2023-12-28T03:04:54;2;2;2
77538;PMS7003;67783;51.656;16.106;2023-12-28T03:07:56;2;2;2
77538;PMS7003;67783;51.656;16.106;2023-12-28T03:10:59;1;1;1
77538;PMS7003;67783;51.656;16.106;2023-12-28T03:14:04;1;1;1
77538;PMS7003;67783;51.656;16.106;2023-12-28T03:17:05;6;3;2
77538;PMS7003;67783;51.656;16.106;2023-12-28T03:20:07;2;2;2
77538;PMS7003;67783;51.656;16.106;2023-12-28T03:23:11;2;0;0
77538;PMS7003;67783;51.656;16.106;2023-12-28T03:26:13;2;1;0
77538;PMS7003;67783;51.656;16.106;2023-12-28T03:29:25;1;1;1
77538;PMS7003;67783;51.656;16.106;2023-12-28T03:32:28;0;0;0
77538;PMS7003;67783;51.656;16.106;2023-12-28T03:35:29;0;0;0
77538;PMS7003;67783;51.656;16.106;2023-12-28T03:38:31;1;1;1
77538;PMS7003;67783;51.656;16.106;2023-12-28T03:41:32;1;1;0
77538;PMS7003;67783;51.656;16.106;2023-12-28T03:44:34;0;0;0
77538;PMS7003;67783;51.656;16.106;2023-12-28T03:47:35;1;0;0
77538;PMS7003;67783;51.656;16.106;2023-12-28T03:50:40;0;0;0
77538;PMS7003;67783;51.656;16.106;2023-12-28T03:53:42;0;0;0
77538;PMS7003;67783;51.656;16.106;2023-12-28T03:56:44;0;0;0
77538;PMS7003;67783;51.656;16.106;2023-12-28T03:59:46;2;0;0
77538;PMS7003;67783;51.656;16.106;2023-12-28T04:02:48;2;2;1
77538;PMS7003;67783;51.656;16.106;2023-12-28T04:05:50;0;0;0
77538;PMS7003;67783;51.656;16.106;2023-12-28T04:08:52;1;0;0
77538;PMS7003;67783;51.656;16.106;2023-12-28T04:11:57;1;1;0
77538;PMS7003;67783;51.656;16.106;2023-12-28T04:14:58;0;0;0
77538;PMS7003;67783;51.656;16.106;2023-12-28T04:18:00;1;1;0
77538;PMS7003;67783;51.656;16.106;2023-12-28T04:21:01;0;0;0
77538;PMS7003;67783;51.656;16.106;2023-12-28T04:24:03;1;1;1
77538;PMS7003;67783;51.656;16.106;2023-12-28T04:27:04;2;2;0
77538;PMS7003;67783;51.656;16.106;2023-12-28T04:30:07;2;1;1
77538;PMS7003;67783;51.656;16.106;2023-12-28T04:33:11;1;1;0
77538;PMS7003;67783;51.656;16.106;2023-12-28T04:36:13;1;0;0
77538;PMS7003;67783;51.656;16.106;2023-12-28T04:39:14;2;1;0
77538;PMS7003;67783;51.656;16.106;2023-12-28T04:42:16;0;0;0
77538;PMS7003;67783;51.656;16.106;2023-12-28T04:45:17;1;1;1
77538;PMS7003;67783;51.656;16.106;2023-12-28T04:48:19;0;0;0
77538;PMS7003;67783;51.656;16.106;2023-12-28T04:51:24;1;1;1
77538;PMS7003;67783;51.656;16.106;2023-12-28T04:54:29;0;0;0
77538;PMS7003;67783;51.656;16.106;2023-12-28T04:57:30;1;1;1
77538;PMS7003;67783;51.656;16.106;2023-12-28T05:00:32;0;0;0
77538;PMS7003;67783;51.656;16.106;2023-12-28T05:03:33;1;1;0
77538;PMS7003;67783;51.656;16.106;2023-12-28T05:06:35;1;0;0
77538;PMS7003;67783;51.656;16.106;2023-12-28T05:09:36;1;0;0
77538;PMS7003;67783;51.656;16.106;2023-12-28T05:12:37;0;0;0
77538;PMS7003;67783;51.656;16.106;2023-12-28T05:15:43;0;0;0
77538;PMS7003;67783;51.656;16.106;2023-12-28T05:18:45;0;0;0
77538;PMS7003;67783;51.656;16.106;2023-12-28T05:21:47;1;1;0
77538;PMS7003;67783;51.656;16.106;2023-12-28T05:24:48;1;1;0
77538;PMS7003;67783;51.656;16.106;2023-12-28T05:27:50;1;1;0
77538;PMS7003;67783;51.656;16.106;2023-12-28T05:30:51;1;1;1
77538;PMS7003;67783;51.656;16.106;2023-12-28T05:33:53;4;2;1
77538;PMS7003;67783;51.656;16.106;2023-12-28T05:36:58;1;1;1
77538;PMS7003;67783;51.656;16.106;2023-12-28T05:40:00;2;2;2
77538;PMS7003;67783;51.656;16.106;2023-12-28T05:43:01;1;1;0
77538;PMS7003;67783;51.656;16.106;2023-12-28T05:46:04;1;1;1
77538;PMS7003;67783;51.656;16.106;2023-12-28T05:49:05;2;1;1
77538;PMS7003;67783;51.656;16.106;2023-12-28T05:52:07;1;1;1
77538;PMS7003;67783;51.656;16.106;2023-12-28T05:55:09;0;0;0
77538;PMS7003;67783;51.656;16.106;2023-12-28T05:58:14;0;0;0
77538;PMS7003;67783;51.656;16.106;2023-12-28T06:01:16;0;0;0
77538;PMS7003;67783;51.656;16.106;2023-12-28T06:04:17;1;1;0
77538;PMS7003;67783;51.656;16.106;2023-12-28T06:07:19;1;1;0
77538;PMS7003;67783;51.656;16.106;2023-12-28T06:10:20;2;0;0
77538;PMS7003;67783;51.656;16.106;2023-12-28T06:13:22;0;0;0
77538;PMS7003;67783;51.656;16.106;2023-12-28T06:16:23;2;1;0
77538;PMS7003;67783;51.656;16.106;2023-12-28T06:19:29;0;0;0
77538;PMS7003;67783;51.656;16.106;2023-12-28T06:22:31;2;0;0
77538;PMS7003;67783;51.656;16.106;2023-12-28T06:25:32;0;0;0
77538;PMS7003;67783;51.656;16.106;2023-12-28T06:28:34;1;0;0
77538;PMS7003;67783;51.656;16.106;2023-12-28T06:31:35;2;0;0
77538;PMS7003;67783;51.656;16.106;2023-12-28T06:34:37;0;0;0
77538;PMS7003;67783;51.656;16.106;2023-12-28T06:37:41;0;0;0
77538;PMS7003;67783;51.656;16.106;2023-12-28T06:40:45;1;0;0
77538;PMS7003;67783;51.656;16.106;2023-12-28T06:43:46;5;1;0
77538;PMS7003;67783;51.656;16.106;2023-12-28T06:46:48;2;1;0
77538;PMS7003;67783;51.656;16.106;2023-12-28T06:49:49;1;0;0
77538;PMS7003;67783;51.656;16.106;2023-12-28T06:52:51;2;1;1
77538;PMS7003;67783;51.656;16.106;2023-12-28T06:55:52;0;0;0
77538;PMS7003;67783;51.656;16.106;2023-12-28T06:58:54;0;0;0
77538;PMS7003;67783;51.656;16.106;2023-12-28T07:01:59;8;0;0
77538;PMS7003;67783;51.656;16.106;2023-12-28T07:05:01;1;1;0
77538;PMS7003;67783;51.656;16.106;2023-12-28T07:08:05;0;0;0
77538;PMS7003;67783;51.656;16.106;2023-12-28T07:11:11;0;0;0
77538;PMS7003;67783;51.656;16.106;2023-12-28T07:14:13;0;0;0
77538;PMS7003;67783;51.656;16.106;2023-12-28T07:17:20;3;1;1
77538;PMS7003;67783;51.656;16.106;2023-12-28T07:20:22;0;0;0
77538;PMS7003;67783;51.656;16.106;2023-12-28T07:23:23;0;0;0
77538;PMS7003;67783;51.656;16.106;2023-12-28T07:26:25;1;1;1
77538;PMS7003;67783;51.656;16.106;2023-12-28T07:29:26;2;1;1
77538;PMS7003;67783;51.656;16.106;2023-12-28T07:32:28;2;1;1
77538;PMS7003;67783;51.656;16.106;2023-12-28T07:35:30;2;2;1
77538;PMS7003;67783;51.656;16.106;2023-12-28T07:38:35;2;1;1
77538;PMS7003;67783;51.656;16.106;2023-12-28T07:41:39;2;1;0
77538;PMS7003;67783;51.656;16.106;2023-12-28T07:44:40;2;1;1
77538;PMS7003;67783;51.656;16.106;2023-12-28T07:47:42;1;1;1
77538;PMS7003;67783;51.656;16.106;2023-12-28T07:50:43;1;1;1
77538;PMS7003;67783;51.656;16.106;2023-12-28T07:53:45;1;1;1
77538;PMS7003;67783;51.656;16.106;2023-12-28T07:56:46;1;1;1
77538;PMS7003;67783;51.656;16.106;2023-12-28T07:59:51;1;1;1
77538;PMS7003;67783;51.656;16.106;2023-12-28T08:02:53;2;2;1
77538;PMS7003;67783;51.656;16.106;2023-12-28T08:05:54;2;2;1
77538;PMS7003;67783;51.656;16.106;2023-12-28T08:08:56;4;3;2
77538;PMS7003;67783;51.656;16.106;2023-12-28T08:11:59;3;2;2
77538;PMS7003;67783;51.656;16.106;2023-12-28T08:15:00;2;2;1
77538;PMS7003;67783;51.656;16.106;2023-12-28T08:18:02;2;2;1
77538;PMS7003;67783;51.656;16.106;2023-12-28T08:21:07;4;2;1
77538;PMS7003;67783;51.656;16.106;2023-12-28T08:24:08;1;1;0
77538;PMS7003;67783;51.656;16.106;2023-12-28T08:27:10;1;1;1
77538;PMS7003;67783;51.656;16.106;2023-12-28T08:30:12;2;1;0
77538;PMS7003;67783;51.656;16.106;2023-12-28T08:33:14;2;2;1
77538;PMS7003;67783;51.656;16.106;2023-12-28T08:36:15;2;1;1
77538;PMS7003;67783;51.656;16.106;2023-12-28T08:39:18;1;1;1
77538;PMS7003;67783;51.656;16.106;2023-12-28T08:42:23;1;1;1
77538;PMS7003;67783;51.656;16.106;2023-12-28T08:45:25;2;2;2
77538;PMS7003;67783;51.656;16.106;2023-12-28T08:48:27;0;0;0
77538;PMS7003;67783;51.656;16.106;2023-12-28T08:51:28;0;0;0
77538;PMS7003;67783;51.656;16.106;2023-12-28T08:54:30;1;1;1
77538;PMS7003;67783;51.656;16.106;2023-12-28T08:57:31;2;2;1
77538;PMS7003;67783;51.656;16.106;2023-12-28T09:00:33;1;1;1
77538;PMS7003;67783;51.656;16.106;2023-12-28T09:03:38;2;1;1
77538;PMS7003;67783;51.656;16.106;2023-12-28T09:06:40;1;1;1
77538;PMS7003;67783;51.656;16.106;2023-12-28T09:09:41;2;1;1
77538;PMS7003;67783;51.656;16.106;2023-12-28T09:12:43;1;1;0
77538;PMS7003;67783;51.656;16.106;2023-12-28T09:15:45;1;1;1
77538;PMS7003;67783;51.656;16.106;2023-12-28T09:18:47;2;0;0
77538;PMS7003;67783;51.656;16.106;2023-12-28T09:21:48;2;2;1
77538;PMS7003;67783;51.656;16.106;2023-12-28T09:24:53;2;2;2
77538;PMS7003;67783;51.656;16.106;2023-12-28T09:27:55;1;1;1
77538;PMS7003;67783;51.656;16.106;2023-12-28T09:30:56;2;1;1
77538;PMS7003;67783;51.656;16.106;2023-12-28T09:33:58;1;1;1
77538;PMS7003;67783;51.656;16.106;2023-12-28T09:37:00;2;2;1
77538;PMS7003;67783;51.656;16.106;2023-12-28T09:40:14;2;2;2
77538;PMS7003;67783;51.656;16.106;2023-12-28T09:43:20;1;1;1
77538;PMS7003;67783;51.656;16.106;2023-12-28T09:46:24;1;1;1
77538;PMS7003;67783;51.656;16.106;2023-12-28T09:49:27;2;2;2
77538;PMS7003;67783;51.656;16.106;2023-12-28T09:52:31;3;2;1
77538;PMS7003;67783;51.656;16.106;2023-12-28T09:55:36;5;2;2
77538;PMS7003;67783;51.656;16.106;2023-12-28T09:58:38;1;1;0
77538;PMS7003;67783;51.656;16.106;2023-12-28T10:01:41;1;1;1
77538;PMS7003;67783;51.656;16.106;2023-12-28T10:04:44;1;1;1
77538;PMS7003;67783;51.656;16.106;2023-12-28T10:07:47;2;2;1
77538;PMS7003;67783;51.656;16.106;2023-12-28T10:10:57;2;2;1
77538;PMS7003;67783;51.656;16.106;2023-12-28T10:14:01;2;2;1
77538;PMS7003;67783;51.656;16.106;2023-12-28T10:17:07;3;1;1
77538;PMS7003;67783;51.656;16.106;2023-12-28T10:20:10;2;2;1
77538;PMS7003;67783;51.656;16.106;2023-12-28T10:23:12;3;2;2
77538;PMS7003;67783;51.656;16.106;2023-12-28T10:26:17;6;3;3
77538;PMS7003;67783;51.656;16.106;2023-12-28T10:29:24;3;3;2
77538;PMS7003;67783;51.656;16.106;2023-12-28T10:32:26;4;2;2
77538;PMS7003;67783;51.656;16.106;2023-12-28T10:35:28;7;3;2
77538;PMS7003;67783;51.656;16.106;2023-12-28T10:38:32;2;2;2
77538;PMS7003;67783;51.656;16.106;2023-12-28T10:41:40;2;2;2
77538;PMS7003;67783;51.656;16.106;2023-12-28T10:44:45;4;2;2
77538;PMS7003;67783;51.656;16.106;2023-12-28T10:48:02;3;2;2
77538;PMS7003;67783;51.656;16.106;2023-12-28T10:51:04;3;3;3
77538;PMS7003;67783;51.656;16.106;2023-12-28T11:00:52;0;0;0
77538;PMS7003;67783;51.656;16.106;2023-12-28T11:04:07;4;3;2
77538;PMS7003;67783;51.656;16.106;2023-12-28T11:07:17;5;3;3
77538;PMS7003;67783;51.656;16.106;2023-12-28T11:10:20;2;2;1
77538;PMS7003;67783;51.656;16.106;2023-12-28T11:13:30;2;2;1
77538;PMS7003;67783;51.656;16.106;2023-12-28T11:16:34;2;1;0
77538;PMS7003;67783;51.656;16.106;2023-12-28T11:19:39;2;2;1
77538;PMS7003;67783;51.656;16.106;2023-12-28T11:22:42;2;1;1
77538;PMS7003;67783;51.656;16.106;2023-12-28T11:25:47;2;2;1
77538;PMS7003;67783;51.656;16.106;2023-12-28T11:28:59;4;2;2
77538;PMS7003;67783;51.656;16.106;2023-12-28T11:32:02;3;2;2
77538;PMS7003;67783;51.656;16.106;2023-12-28T11:35:08;4;3;2
77538;PMS7003;67783;51.656;16.106;2023-12-28T11:38:18;1;1;1
77538;PMS7003;67783;51.656;16.106;2023-12-28T11:41:21;1;1;1
77538;PMS7003;67783;51.656;16.106;2023-12-28T11:44:25;5;1;1
77538;PMS7003;67783;51.656;16.106;2023-12-28T11:47:27;0;0;0
77538;PMS7003;67783;51.656;16.106;2023-12-28T11:50:29;5;2;1
77538;PMS7003;67783;51.656;16.106;2023-12-28T11:53:39;3;3;2
77538;PMS7003;67783;51.656;16.106;2023-12-28T11:56:43;2;2;1
77538;PMS7003;67783;51.656;16.106;2023-12-28T11:59:46;2;2;1
77538;PMS7003;67783;51.656;16.106;2023-12-28T12:02:53;4;4;2
77538;PMS7003;67783;51.656;16.106;2023-12-28T12:05:56;5;5;4
77538;PMS7003;67783;51.656;16.106;2023-12-28T12:09:01;5;4;3
77538;PMS7003;67783;51.656;16.106;2023-12-28T12:12:03;7;5;3
77538;PMS7003;67783;51.656;16.106;2023-12-28T12:15:06;5;5;4
77538;PMS7003;67783;51.656;16.106;2023-12-28T12:18:08;5;4;3
77538;PMS7003;67783;51.656;16.106;2023-12-28T12:21:11;5;4;3
77538;PMS7003;67783;51.656;16.106;2023-12-28T12:24:22;3;3;3
77538;PMS7003;67783;51.656;16.106;2023-12-28T12:27:24;3;3;2
77538;PMS7003;67783;51.656;16.106;2023-12-28T12:30:26;4;4;3
77538;PMS7003;67783;51.656;16.106;2023-12-28T12:33:27;3;3;3
77538;PMS7003;67783;51.656;16.106;2023-12-28T12:36:29;4;4;4
77538;PMS7003;67783;51.656;16.106;2023-12-28T12:39:31;3;3;2
77538;PMS7003;67783;51.656;16.106;2023-12-28T12:42:33;4;4;2
77538;PMS7003;67783;51.656;16.106;2023-12-28T12:45:38;6;4;3
77538;PMS7003;67783;51.656;16.106;2023-12-28T12:48:40;3;3;3
77538;PMS7003;67783;51.656;16.106;2023-12-28T12:51:42;1;1;1
77538;PMS7003;67783;51.656;16.106;2023-12-28T12:54:52;4;4;3
77538;PMS7003;67783;51.656;16.106;2023-12-28T12:57:58;5;2;1
77538;PMS7003;67783;51.656;16.106;2023-12-28T13:01:03;4;4;3
77538;PMS7003;67783;51.656;16.106;2023-12-28T13:04:06;3;3;2
77538;PMS7003;67783;51.656;16.106;2023-12-28T13:07:07;4;3;3
77538;PMS7003;67783;51.656;16.106;2023-12-28T13:10:09;3;3;2
77538;PMS7003;67783;51.656;16.106;2023-12-28T13:13:11;2;2;2
77538;PMS7003;67783;51.656;16.106;2023-12-28T13:16:13;6;4;1
77538;PMS7003;67783;51.656;16.106;2023-12-28T13:19:14;4;2;2
77538;PMS7003;67783;51.656;16.106;2023-12-28T13:22:19;4;2;2
77538;PMS7003;67783;51.656;16.106;2023-12-28T13:25:21;3;3;2
77538;PMS7003;67783;51.656;16.106;2023-12-28T13:28:23;4;3;2
77538;PMS7003;67783;51.656;16.106;2023-12-28T13:31:25;4;3;2
77538;PMS7003;67783;51.656;16.106;2023-12-28T13:34:27;4;3;2
77538;PMS7003;67783;51.656;16.106;2023-12-28T13:37:40;6;4;3
77538;PMS7003;67783;51.656;16.106;2023-12-28T13:40:41;4;4;3
77538;PMS7003;67783;51.656;16.106;2023-12-28T13:43:43;2;2;2
77538;PMS7003;67783;51.656;16.106;2023-12-28T13:46:44;5;4;3
77538;PMS7003;67783;51.656;16.106;2023-12-28T13:49:46;4;4;2
77538;PMS7003;67783;51.656;16.106;2023-12-28T13:52:48;3;3;2
77538;PMS7003;67783;51.656;16.106;2023-12-28T13:55:50;5;4;3
77538;PMS7003;67783;51.656;16.106;2023-12-28T13:58:55;6;6;4
77538;PMS7003;67783;51.656;16.106;2023-12-28T14:01:56;11;10;6
77538;PMS7003;67783;51.656;16.106;2023-12-28T14:04:59;14;12;8
77538;PMS7003;67783;51.656;16.106;2023-12-28T14:08:01;12;12;8
77538;PMS7003;67783;51.656;16.106;2023-12-28T14:11:04;11;9;7
77538;PMS7003;67783;51.656;16.106;2023-12-28T14:14:15;6;6;5
77538;PMS7003;67783;51.656;16.106;2023-12-28T14:17:17;7;7;5
77538;PMS7003;67783;51.656;16.106;2023-12-28T14:20:21;7;7;4
77538;PMS7003;67783;51.656;16.106;2023-12-28T14:23:23;5;5;3
77538;PMS7003;67783;51.656;16.106;2023-12-28T14:26:25;5;5;4
77538;PMS7003;67783;51.656;16.106;2023-12-28T14:29:36;6;6;5
77538;PMS7003;67783;51.656;16.106;2023-12-28T14:32:38;5;5;4
77538;PMS7003;67783;51.656;16.106;2023-12-28T14:35:40;6;6;5
77538;PMS7003;67783;51.656;16.106;2023-12-28T14:39:04;7;6;5
77538;PMS7003;67783;51.656;16.106;2023-12-28T14:42:07;6;5;4
77538;PMS7003;67783;51.656;16.106;2023-12-28T14:45:10;8;6;4
77538;PMS7003;67783;51.656;16.106;2023-12-28T14:48:11;4;4;4
77538;PMS7003;67783;51.656;16.106;2023-12-28T14:51:13;9;3;3
77538;PMS7003;67783;51.656;16.106;2023-12-28T14:54:14;7;7;5
77538;PMS7003;67783;51.656;16.106;2023-12-28T14:57:20;7;2;2
77538;PMS7003;67783;51.656;16.106;2023-12-28T15:00:23;5;5;4
77538;PMS7003;67783;51.656;16.106;2023-12-28T15:03:25;7;6;5
77538;PMS7003;67783;51.656;16.106;2023-12-28T15:06:26;9;7;5
77538;PMS7003;67783;51.656;16.106;2023-12-28T15:09:28;5;5;4
77538;PMS7003;67783;51.656;16.106;2023-12-28T15:12:40;7;6;3
77538;PMS7003;67783;51.656;16.106;2023-12-28T15:15:42;11;6;5
77538;PMS7003;67783;51.656;16.106;2023-12-28T15:18:45;6;6;5
77538;PMS7003;67783;51.656;16.106;2023-12-28T15:21:47;10;7;5
77538;PMS7003;67783;51.656;16.106;2023-12-28T15:24:49;7;6;4
77538;PMS7003;67783;51.656;16.106;2023-12-28T15:28:00;8;7;5
77538;PMS7003;67783;51.656;16.106;2023-12-28T15:31:03;5;5;3
77538;PMS7003;67783;51.656;16.106;2023-12-28T15:34:06;7;7;4
77538;PMS7003;67783;51.656;16.106;2023-12-28T15:37:08;10;6;3
77538;PMS7003;67783;51.656;16.106;2023-12-28T15:40:09;9;8;5
77538;PMS7003;67783;51.656;16.106;2023-12-28T15:43:21;8;5;3
77538;PMS7003;67783;51.656;16.106;2023-12-28T15:46:23;6;5;3
77538;PMS7003;67783;51.656;16.106;2023-12-28T15:49:24;9;6;4
77538;PMS7003;67783;51.656;16.106;2023-12-28T15:52:26;2;2;1
77538;PMS7003;67783;51.656;16.106;2023-12-28T15:55:28;7;7;6
77538;PMS7003;67783;51.656;16.106;2023-12-28T15:58:29;8;6;4
77538;PMS7003;67783;51.656;16.106;2023-12-28T16:01:31;8;8;5
77538;PMS7003;67783;51.656;16.106;2023-12-28T16:04:36;7;6;6
77538;PMS7003;67783;51.656;16.106;2023-12-28T16:07:38;8;4;3
77538;PMS7003;67783;51.656;16.106;2023-12-28T16:10:40;4;4;3
77538;PMS7003;67783;51.656;16.106;2023-12-28T16:13:42;11;8;7
77538;PMS7003;67783;51.656;16.106;2023-12-28T16:16:44;7;5;3
77538;PMS7003;67783;51.656;16.106;2023-12-28T16:19:57;10;10;6
77538;PMS7003;67783;51.656;16.106;2023-12-28T16:22:59;9;9;6
77538;PMS7003;67783;51.656;16.106;2023-12-28T16:26:00;6;6;5
77538;PMS7003;67783;51.656;16.106;2023-12-28T16:29:02;9;9;7
77538;PMS7003;67783;51.656;16.106;2023-12-28T16:32:04;10;9;5
77538;PMS7003;67783;51.656;16.106;2023-12-28T16:35:17;10;5;4
77538;PMS7003;67783;51.656;16.106;2023-12-28T16:38:19;9;5;3
77538;PMS7003;67783;51.656;16.106;2023-12-28T16:41:20;7;4;3
77538;PMS7003;67783;51.656;16.106;2023-12-28T16:44:22;11;7;5
77538;PMS7003;67783;51.656;16.106;2023-12-28T16:47:23;11;8;5
77538;PMS7003;67783;51.656;16.106;2023-12-28T16:50:25;8;8;4
77538;PMS7003;67783;51.656;16.106;2023-12-28T16:53:26;6;5;4
77538;PMS7003;67783;51.656;16.106;2023-12-28T16:56:32;10;9;7
77538;PMS7003;67783;51.656;16.106;2023-12-28T16:59:33;8;8;6
77538;PMS7003;67783;51.656;16.106;2023-12-28T17:02:35;8;7;5
77538;PMS7003;67783;51.656;16.106;2023-12-28T17:05:37;9;5;4
77538;PMS7003;67783;51.656;16.106;2023-12-28T17:08:38;9;7;4
77538;PMS7003;67783;51.656;16.106;2023-12-28T17:11:41;7;7;6
77538;PMS7003;67783;51.656;16.106;2023-12-28T17:14:47;10;6;5
77538;PMS7003;67783;51.656;16.106;2023-12-28T17:17:52;5;3;3
77538;PMS7003;67783;51.656;16.106;2023-12-28T17:20:54;8;8;6
77538;PMS7003;67783;51.656;16.106;2023-12-28T17:23:55;9;8;5
77538;PMS7003;67783;51.656;16.106;2023-12-28T17:26:59;11;9;5
77538;PMS7003;67783;51.656;16.106;2023-12-28T17:30:10;8;8;6
77538;PMS7003;67783;51.656;16.106;2023-12-28T17:33:15;9;7;4
77538;PMS7003;67783;51.656;16.106;2023-12-28T17:36:18;7;5;3
77538;PMS7003;67783;51.656;16.106;2023-12-28T17:39:20;9;6;4
77538;PMS7003;67783;51.656;16.106;2023-12-28T17:42:27;8;8;6
77538;PMS7003;67783;51.656;16.106;2023-12-28T17:48:44;26;13;8
77538;PMS7003;67783;51.656;16.106;2023-12-28T17:51:49;10;10;7
77538;PMS7003;67783;51.656;16.106;2023-12-28T17:54:52;11;9;6
77538;PMS7003;67783;51.656;16.106;2023-12-28T17:58:02;4;4;2
77538;PMS7003;67783;51.656;16.106;2023-12-28T18:01:04;13;11;6
77538;PMS7003;67783;51.656;16.106;2023-12-28T18:04:05;9;7;5
77538;PMS7003;67783;51.656;16.106;2023-12-28T18:07:07;13;6;4
77538;PMS7003;67783;51.656;16.106;2023-12-28T18:10:08;6;5;4
77538;PMS7003;67783;51.656;16.106;2023-12-28T18:13:10;7;6;5
77538;PMS7003;67783;51.656;16.106;2023-12-28T18:16:11;4;4;2
77538;PMS7003;67783;51.656;16.106;2023-12-28T18:19:17;8;7;5
77538;PMS7003;67783;51.656;16.106;2023-12-28T18:22:18;8;7;6
77538;PMS7003;67783;51.656;16.106;2023-12-28T18:25:20;9;9;6
77538;PMS7003;67783;51.656;16.106;2023-12-28T18:28:21;8;8;5
77538;PMS7003;67783;51.656;16.106;2023-12-28T18:31:23;5;5;3
77538;PMS7003;67783;51.656;16.106;2023-12-28T18:34:25;8;6;4
77538;PMS7003;67783;51.656;16.106;2023-12-28T18:37:28;6;5;3
77538;PMS7003;67783;51.656;16.106;2023-12-28T18:40:33;6;6;4
77538;PMS7003;67783;51.656;16.106;2023-12-28T18:43:35;10;5;5
77538;PMS7003;67783;51.656;16.106;2023-12-28T18:46:37;4;3;2
77538;PMS7003;67783;51.656;16.106;2023-12-28T18:49:38;5;5;4
77538;PMS7003;67783;51.656;16.106;2023-12-28T18:52:40;5;5;3
77538;PMS7003;67783;51.656;16.106;2023-12-28T18:55:42;4;3;2
77538;PMS7003;67783;51.656;16.106;2023-12-28T18:58:43;5;4;3
77538;PMS7003;67783;51.656;16.106;2023-12-28T19:01:48;3;3;2
77538;PMS7003;67783;51.656;16.106;2023-12-28T19:04:52;6;5;3
77538;PMS7003;67783;51.656;16.106;2023-12-28T19:07:54;5;5;3
77538;PMS7003;67783;51.656;16.106;2023-12-28T19:10:55;5;5;3
77538;PMS7003;67783;51.656;16.106;2023-12-28T19:13:57;8;5;4
77538;PMS7003;67783;51.656;16.106;2023-12-28T19:17:09;5;5;4
77538;PMS7003;67783;51.656;16.106;2023-12-28T19:20:12;8;4;3
77538;PMS7003;67783;51.656;16.106;2023-12-28T19:23:14;6;5;4
77538;PMS7003;67783;51.656;16.106;2023-12-28T19:26:17;7;7;5
77538;PMS7003;67783;51.656;16.106;2023-12-28T19:29:19;6;5;3
77538;PMS7003;67783;51.656;16.106;2023-12-28T19:32:30;5;5;4
77538;PMS7003;67783;51.656;16.106;2023-12-28T19:35:31;6;5;4
77538;PMS7003;67783;51.656;16.106;2023-12-28T19:38:36;5;5;3
77538;PMS7003;67783;51.656;16.106;2023-12-28T19:41:38;9;7;4
77538;PMS7003;67783;51.656;16.106;2023-12-28T19:44:39;6;6;4
77538;PMS7003;67783;51.656;16.106;2023-12-28T19:47:50;8;4;3
77538;PMS7003;67783;51.656;16.106;2023-12-28T19:50:52;7;5;3
77538;PMS7003;67783;51.656;16.106;2023-12-28T19:53:53;7;7;5
77538;PMS7003;67783;51.656;16.106;2023-12-28T19:56:55;5;4;3
77538;PMS7003;67783;51.656;16.106;2023-12-28T19:59:56;9;5;3
77538;PMS7003;67783;51.656;16.106;2023-12-28T20:02:58;6;6;3
77538;PMS7003;67783;51.656;16.106;2023-12-28T20:06:02;4;4;2
77538;PMS7003;67783;51.656;16.106;2023-12-28T20:09:06;6;5;4
77538;PMS7003;67783;51.656;16.106;2023-12-28T20:12:08;8;5;5
77538;PMS7003;67783;51.656;16.106;2023-12-28T20:15:10;4;4;2
77538;PMS7003;67783;51.656;16.106;2023-12-28T20:18:16;4;3;3
77538;PMS7003;67783;51.656;16.106;2023-12-28T20:21:18;4;3;2
77538;PMS7003;67783;51.656;16.106;2023-12-28T20:24:26;7;4;3
77538;PMS7003;67783;51.656;16.106;2023-12-28T20:27:30;7;5;3